Bookmark and Share
Track history (hours):
 

Bochem Mumbai

Last reported at 2014-Apr-20 12:33 UTC. Time now 2014-Apr-23 07:11 UTC.
Position N 37°24' W 009°53'.

Length 171 m; draft 6.9 m.

Type: Ship (hazmat cat B). MMSI: 477932400.

NotesDate/timePositionNaut miles runAvg speedWind from/ knotsBaromVisibWave heightAir tempDewpointWater temp
2014-Apr-20 12:33N 37°24' W 009°53'1313.2
2014-Apr-20 11:33N 37°37' W 009°57'1313.1
2014-Apr-20 10:33N 37°50' W 009°60'  
2014-Apr-17 16:33N 50°15' W 001°27'2216.9
2014-Apr-17 15:17N 50°21' W 000°55'1215.9
2014-Apr-17 14:32N 50°25' W 000°37'1515.0
2014-Apr-17 13:33N 50°29' W 000°15'1513.7
2014-Apr-17 12:29N 50°33' E 000°08'1112.5
2014-Apr-17 11:33N 50°36' E 000°25'1211.7
2014-Apr-17 10:33N 50°41' E 000°42'1212.2
2014-Apr-17 09:33N 50°48' E 000°58'1414.2
2014-Apr-17 08:33N 50°57' E 001°15'1616.2
2014-Apr-17 07:34N 51°08' E 001°34'1514.8
2014-Apr-17 06:34N 51°19' E 001°50'1312.8
2014-Apr-17 05:33N 51°30' E 001°60'1212.4
2014-Apr-17 04:33N 51°39' E 002°14'1211.8
2014-Apr-17 03:33N 51°47' E 002°27'1211.6
2014-Apr-17 02:33N 51°55' E 002°41'2311.7
2014-Apr-17 00:33N 52°03' E 003°17'1414.3
2014-Apr-16 23:33N 52°04' E 003°40'1110.8
2014-Apr-16 22:33N 52°02' E 003°57'4 3.8
2014-Apr-16 21:33N 51°60' E 004°02'5 0.1
2014-Apr-15 03:34N 51°57' E 004°08'3 2.5
2014-Apr-15 02:34N 51°59' E 004°05'9 8.6
2014-Apr-15 01:34N 51°54' E 004°17'1 0.7
2014-Apr-14 23:33N 51°53' E 004°18'0 0.0
2014-Apr-14 22:30N 51°53' E 004°18'0 0.0
2014-Apr-14 21:30N 51°53' E 004°18'0 0.0
2014-Apr-14 11:30N 51°53' E 004°18'0 0.0
2014-Apr-14 08:33N 51°53' E 004°18'0 0.0
2014-Apr-14 07:30N 51°53' E 004°18'0 0.0
2014-Apr-13 22:33N 51°53' E 004°18'0 0.0
2014-Apr-13 21:30N 51°53' E 004°18'0 0.0
2014-Apr-13 20:27N 51°53' E 004°18'0 0.0
2014-Apr-13 19:33N 51°53' E 004°18'0 0.0
2014-Apr-13 18:33N 51°53' E 004°18'3 2.7
2014-Apr-13 17:33N 51°55' E 004°15'9 9.1
2014-Apr-13 16:33N 51°59' E 004°02'1110.5
2014-Apr-13 15:33N 51°60' E 003°45'3812.5
2014-Apr-13 12:33N 51°48' E 002°47'1714.8
2014-Apr-13 11:25N 51°38' E 002°26'1614.5
2014-Apr-13 10:18N 51°25' E 002°09'1013.3
2014-Apr-13 09:33N 51°16' E 002°06'1313.4
2014-Apr-13 08:34N 51°08' E 001°49'1312.2
2014-Apr-13 07:32N 50°59' E 001°35'2110.7
2014-Apr-13 05:33N 50°40' E 001°19'1312.3
2014-Apr-13 04:31N 50°32' E 001°04'1212.3
2014-Apr-13 03:33N 50°28' E 000°46'1312.6
2014-Apr-13 02:31N 50°24' E 000°27'3812.3
2014-Apr-12 23:25N 50°14' W 000°31'1112.5
2014-Apr-12 22:33N 50°11' W 000°47'1313.5
2014-Apr-12 21:34N 50°07' W 001°07'6415.9
2014-Apr-12 17:32N 49°50' W 002°43'  

Dump ship's entire track history

sailing weather and tide predictions

Bochem Mumbai — VRHJ8 — position and weather